Labette, Kansas
Current Conditions -  °F | °C
As of 4:52 AM on Saturday 22 Nov 2014 (Local Time) from KPPF Reporting Station
Overcast Overcast  
Wind Chill: 56°   Ceiling: 800
Heat Index: 56°   Visibility: 7mi
Dew Point: 54°   Wind: 9mph
Humidity: 93%   Direction: 180°S
Pressure: 30.03"   Gusts: 20mph
Location:  37.2003°N, 95.1784°W
Report Text: KPPF 221052Z AUTO 18008G17KT 7SM OVC008 13/12 A3003 RMK AO2 SLP168 T01330122
Loading
Personal Weather Stations






























Interactive Weather Map New forecast layout! Learn more

10-Day Weather Forecast

Advertisements
Track Severe Weather on mobile